Time;durP1;ratioP1;P1;durP2;ratioP2;P2;SDS_P1;SDS_P2;PMS_P1;PMS_P2;Temp;Humidity;BMP_temperature;BMP_pressure;BME280_temperature;BME280_humidity;BME280_pressure;Samples;Min_cycle;Max_cycle;Signal;HPM_P1;HPM_P2
2022/10/26 03:01:58;;;;;;;;;;;14.10;99.90;;;;;;5510022;23;19926;-68
2022/10/26 03:04:28;;;;;;;;;;;14.10;99.90;;;;;;4992805;28;20420;-70
2022/10/26 03:06:54;;;;;;;;;;;14.00;99.90;;;;;;4991077;28;20036;-69
2022/10/26 03:09:22;;;;;;;;;;;14.00;99.90;;;;;;4995657;28;20362;-70
2022/10/26 03:11:48;;;;;;;;;;;14.00;99.90;;;;;;4989223;28;20313;-68
2022/10/26 03:14:15;;;;;;;;;;;14.00;99.90;;;;;;4982092;28;19972;-69
2022/10/26 03:16:42;;;;;;;;;;;14.00;99.90;;;;;;4987940;28;19972;-69
2022/10/26 03:19:10;;;;;;;;;;;14.00;99.90;;;;;;4982457;28;20002;-69
2022/10/26 03:21:36;;;;;;;;;;;14.00;99.90;;;;;;4987693;28;19957;-69
2022/10/26 03:24:03;;;;;;;;;;;14.00;99.90;;;;;;4982676;28;19926;-69
2022/10/26 03:26:30;;;;;;;;;;;14.00;99.90;;;;;;4980719;28;19926;-69
2022/10/26 03:28:57;;;;;;;;;;;14.00;99.90;;;;;;4980618;28;19930;-68
2022/10/26 03:31:23;;;;;;;;;;;14.00;99.90;;;;;;4993807;28;20408;-69
2022/10/26 03:33:50;;;;;;;;;;;14.00;99.90;;;;;;4978750;28;19992;-69
2022/10/26 03:36:18;;;;;;;;;;;14.00;99.90;;;;;;4988332;28;19976;-69
2022/10/26 03:38:45;;;;;;;;;;;14.00;99.90;;;;;;4978040;28;20452;-70
2022/10/26 03:41:12;;;;;;;;;;;14.00;99.90;;;;;;4984101;28;19933;-69
2022/10/26 03:43:39;;;;;;;;;;;14.00;99.90;;;;;;4985442;28;19926;-69
2022/10/26 03:46:05;;;;;;;;;;;14.00;99.90;;;;;;4978621;28;20443;-69
2022/10/26 03:48:32;;;;;;;;;;;14.00;99.90;;;;;;4985976;28;19925;-69
2022/10/26 03:50:59;;;;;;;;;;;14.00;99.90;;;;;;4993199;28;20319;-68
2022/10/26 03:53:27;;;;;;;;;;;14.00;99.90;;;;;;4994113;28;19929;-70
2022/10/26 03:55:54;;;;;;;;;;;14.00;99.90;;;;;;4987646;28;20432;-69
2022/10/26 04:00:48;;;;;;;;;;;14.10;99.90;;;;;;4969372;28;19926;-70
2022/10/26 04:03:14;;;;;;;;;;;14.10;99.90;;;;;;4961812;28;20000;-70
2022/10/26 04:05:41;;;;;;;;;;;14.10;99.90;;;;;;4955664;28;20033;-70
2022/10/26 04:08:08;;;;;;;;;;;14.10;99.90;;;;;;4962848;28;20024;-70
2022/10/26 04:10:36;;;;;;;;;;;14.10;99.90;;;;;;4931971;29;20022;-70
2022/10/26 04:13:03;;;;;;;;;;;14.10;99.90;;;;;;4950731;28;20421;-70
2022/10/26 04:15:29;;;;;;;;;;;14.10;99.90;;;;;;4939766;29;20489;-70
2022/10/26 04:17:56;;;;;;;;;;;14.20;99.90;;;;;;4945817;29;19926;-70
2022/10/26 04:20:23;;;;;;;;;;;14.20;99.90;;;;;;4942847;29;19954;-70
2022/10/26 04:22:56;;;;;;;;;;;14.20;99.90;;;;;;4935881;29;19927;-69
2022/10/26 04:25:23;;;;;;;;;;;14.20;99.90;;;;;;4940390;29;19931;-70
2022/10/26 04:27:51;;;;;;;;;;;14.30;99.90;;;;;;4943937;29;19999;-68
2022/10/26 04:30:18;;;;;;;;;;;14.40;99.90;;;;;;4944558;28;19926;-69
2022/10/26 04:32:45;;;;;;;;;;;14.40;99.90;;;;;;4937798;29;19930;-70
2022/10/26 04:35:11;;;;;;;;;;;14.50;99.90;;;;;;4953789;28;20401;-70
2022/10/26 04:37:38;;;;;;;;;;;14.50;99.90;;;;;;4946274;28;20418;-70
2022/10/26 04:40:05;;;;;;;;;;;14.50;99.90;;;;;;4952187;29;20353;-70
2022/10/26 04:42:39;;;;;;;;;;;14.60;99.90;;;;;;4943582;29;20022;-70
2022/10/26 04:45:08;;;;;;;;;;;14.70;99.90;;;;;;4934395;29;20374;-70
2022/10/26 04:47:35;;;;;;;;;;;14.70;99.90;;;;;;4947824;28;19982;-70
2022/10/26 04:50:01;;;;;;;;;;;14.70;99.90;;;;;;4946544;28;20407;-69
2022/10/26 04:52:28;;;;;;;;;;;14.80;99.90;;;;;;4942311;29;19927;-70
2022/10/26 04:54:55;;;;;;;;;;;14.80;99.90;;;;;;4945159;29;20001;-70
2022/10/26 04:57:22;;;;;;;;;;;14.80;99.90;;;;;;4939620;28;19926;-70
2022/10/26 04:59:48;;;;;;;;;;;14.80;99.90;;;;;;4940393;29;19927;-70
2022/10/26 05:02:17;;;;;;;;;;;14.80;99.90;;;;;;4939664;29;19931;-70
2022/10/26 05:04:43;;;;;;;;;;;14.80;99.90;;;;;;4939787;29;19942;-70
2022/10/26 05:07:10;;;;;;;;;;;14.80;99.90;;;;;;4937979;28;20322;-69
2022/10/26 05:09:37;;;;;;;;;;;14.80;99.90;;;;;;4932461;29;20282;-69
2022/10/26 05:12:04;;;;;;;;;;;14.90;99.90;;;;;;4933326;29;19931;-69
2022/10/26 05:14:31;;;;;;;;;;;14.90;99.90;;;;;;4932916;29;19983;-68
2022/10/26 05:16:57;;;;;;;;;;;14.90;99.90;;;;;;4934177;29;20363;-69
2022/10/26 05:19:26;;;;;;;;;;;14.80;99.90;;;;;;4934831;29;19927;-69
2022/10/26 05:21:53;;;;;;;;;;;14.80;99.90;;;;;;4933816;28;19930;-69
2022/10/26 05:24:19;;;;;;;;;;;14.80;99.90;;;;;;4932999;29;20342;-69
2022/10/26 05:26:46;;;;;;;;;;;14.80;99.90;;;;;;4933205;29;20449;-69
2022/10/26 05:29:13;;;;;;;;;;;14.80;99.90;;;;;;4935127;29;20362;-69
2022/10/26 05:31:40;;;;;;;;;;;14.80;99.90;;;;;;4934754;29;19987;-69
2022/10/26 05:34:06;;;;;;;;;;;14.80;99.90;;;;;;4929950;29;19926;-69
2022/10/26 05:36:34;;;;;;;;;;;14.90;99.90;;;;;;4933992;29;20025;-69
2022/10/26 05:39:01;;;;;;;;;;;14.90;99.90;;;;;;4929790;29;19982;-68
2022/10/26 05:41:28;;;;;;;;;;;14.90;99.90;;;;;;4944719;29;19989;-70
2022/10/26 05:43:55;;;;;;;;;;;14.90;99.90;;;;;;4935634;29;19938;-70
2022/10/26 05:46:22;;;;;;;;;;;14.90;99.90;;;;;;4941603;29;19930;-70
2022/10/26 05:48:48;;;;;;;;;;;14.90;99.90;;;;;;4939701;28;19927;-68
2022/10/26 05:51:15;;;;;;;;;;;14.90;99.90;;;;;;4936830;28;19934;-67
2022/10/26 05:53:44;;;;;;;;;;;14.90;99.90;;;;;;4944108;29;20420;-67
2022/10/26 05:56:15;;;;;;;;;;;14.90;99.90;;;;;;4941159;28;19927;-70
2022/10/26 05:58:43;;;;;;;;;;;14.90;99.90;;;;;;4937387;29;20378;-70
2022/10/26 06:01:13;;;;;;;;;;;14.90;99.90;;;;;;4940110;29;19931;-67
2022/10/26 06:03:46;;;;;;;;;;;14.90;99.90;;;;;;4948726;29;19927;-70
2022/10/26 06:06:13;;;;;;;;;;;14.80;99.90;;;;;;4944665;29;20500;-70
2022/10/26 06:08:41;;;;;;;;;;;14.80;99.90;;;;;;4942017;29;20297;-70
2022/10/26 06:11:10;;;;;;;;;;;14.70;99.90;;;;;;4943546;28;19926;-70
2022/10/26 06:13:37;;;;;;;;;;;14.60;99.90;;;;;;4935667;29;19930;-70
2022/10/26 06:16:12;;;;;;;;;;;14.60;99.90;;;;;;4949419;28;19945;-70
2022/10/26 06:18:43;;;;;;;;;;;14.50;99.90;;;;;;4941997;29;19926;-69
2022/10/26 06:21:17;;;;;;;;;;;14.40;99.90;;;;;;4942858;28;19926;-70
2022/10/26 06:23:47;;;;;;;;;;;14.40;99.90;;;;;;4942865;29;20430;-70
2022/10/26 06:26:22;;;;;;;;;;;14.30;99.90;;;;;;4940709;28;19930;-69
2022/10/26 06:28:52;;;;;;;;;;;14.30;99.90;;;;;;4938386;29;19927;-70
2022/10/26 06:31:19;;;;;;;;;;;14.30;99.90;;;;;;4944748;29;19926;-70
2022/10/26 06:33:46;;;;;;;;;;;14.20;99.90;;;;;;4946784;28;20397;-70
2022/10/26 06:36:19;;;;;;;;;;;14.20;99.90;;;;;;4938307;29;19926;-70
2022/10/26 06:38:47;;;;;;;;;;;14.20;99.90;;;;;;4942560;29;20350;-69
2022/10/26 06:41:17;;;;;;;;;;;14.20;99.90;;;;;;4934246;29;19931;-70
2022/10/26 06:43:46;;;;;;;;;;;14.20;99.90;;;;;;4930649;29;20019;-72
2022/10/26 06:46:16;;;;;;;;;;;14.20;99.90;;;;;;4938728;29;19977;-68
2022/10/26 06:48:46;;;;;;;;;;;14.20;99.90;;;;;;4943801;28;19951;-69
2022/10/26 06:51:15;;;;;;;;;;;14.10;99.90;;;;;;4935031;29;19974;-72
2022/10/26 06:53:43;;;;;;;;;;;14.10;99.90;;;;;;4931349;29;19930;-68
2022/10/26 06:56:11;;;;;;;;;;;14.10;99.90;;;;;;4929419;29;19927;-69
2022/10/26 06:58:39;;;;;;;;;;;14.10;99.90;;;;;;4932784;29;19933;-69
2022/10/26 07:01:10;;;;;;;;;;;14.20;99.90;;;;;;4933610;29;19974;-70
2022/10/26 07:03:37;;;;;;;;;;;14.10;99.90;;;;;;4947531;28;19927;-69
2022/10/26 07:06:04;;;;;;;;;;;14.10;99.90;;;;;;4935571;29;20314;-69
2022/10/26 07:08:31;;;;;;;;;;;14.10;99.90;;;;;;4933730;29;20307;-69
2022/10/26 07:10:58;;;;;;;;;;;14.20;99.90;;;;;;4936297;29;19927;-69
2022/10/26 07:13:25;;;;;;;;;;;14.10;99.90;;;;;;4932594;29;19960;-69
2022/10/26 07:15:52;;;;;;;;;;;14.10;99.90;;;;;;4934509;29;19943;-70
2022/10/26 07:18:20;;;;;;;;;;;14.10;99.90;;;;;;4932832;29;20393;-70
2022/10/26 07:20:47;;;;;;;;;;;14.10;99.90;;;;;;4934110;29;19967;-70
2022/10/26 07:23:14;;;;;;;;;;;14.10;99.90;;;;;;4935731;29;19930;-70
2022/10/26 07:25:41;;;;;;;;;;;14.10;99.90;;;;;;4937047;29;19927;-72
2022/10/26 07:28:09;;;;;;;;;;;14.10;99.90;;;;;;4935974;29;19927;-72
2022/10/26 07:30:36;;;;;;;;;;;14.10;99.90;;;;;;4935606;29;20340;-75
2022/10/26 07:33:03;;;;;;;;;;;14.10;99.90;;;;;;4936866;29;19927;-71
2022/10/26 07:35:32;;;;;;;;;;;14.20;99.90;;;;;;4937198;29;19969;-72
2022/10/26 07:37:59;;;;;;;;;;;14.20;99.90;;;;;;4943125;29;19931;-72
2022/10/26 07:40:26;;;;;;;;;;;14.30;99.90;;;;;;4947303;28;19926;-71
2022/10/26 07:42:56;;;;;;;;;;;14.30;99.90;;;;;;4948688;29;19927;-69
2022/10/26 07:45:23;;;;;;;;;;;14.40;99.90;;;;;;4947826;28;19926;-68
2022/10/26 07:47:49;;;;;;;;;;;14.50;99.90;;;;;;4951197;29;19926;-67
2022/10/26 07:50:16;;;;;;;;;;;14.50;99.90;;;;;;4943296;29;19926;-69
2022/10/26 07:52:44;;;;;;;;;;;14.60;99.90;;;;;;4938864;29;19927;-68
2022/10/26 07:55:11;;;;;;;;;;;14.60;99.90;;;;;;4937555;29;19927;-68
2022/10/26 07:57:38;;;;;;;;;;;14.70;99.90;;;;;;4944048;29;19930;-68
2022/10/26 08:00:06;;;;;;;;;;;14.70;99.90;;;;;;4943910;29;19930;-72
2022/10/26 08:02:33;;;;;;;;;;;14.70;99.90;;;;;;4946264;28;19969;-69
2022/10/26 08:05:00;;;;;;;;;;;14.80;99.90;;;;;;4936535;29;19941;-69
2022/10/26 08:07:26;;;;;;;;;;;14.80;99.90;;;;;;4939193;29;19927;-69
2022/10/26 08:09:55;;;;;;;;;;;14.90;99.90;;;;;;4944135;29;19927;-70
2022/10/26 08:12:21;;;;;;;;;;;15.00;99.90;;;;;;4946620;29;19927;-68
2022/10/26 08:14:48;;;;;;;;;;;15.20;99.90;;;;;;4940732;28;19931;-69
2022/10/26 08:17:15;;;;;;;;;;;15.30;99.90;;;;;;4946735;28;19926;-68
2022/10/26 08:19:42;;;;;;;;;;;15.40;99.90;;;;;;4945056;29;19927;-69
2022/10/26 08:22:09;;;;;;;;;;;15.50;99.90;;;;;;4949621;28;19930;-68
2022/10/26 08:24:35;;;;;;;;;;;15.60;99.90;;;;;;4944609;29;20409;-68
2022/10/26 08:27:04;;;;;;;;;;;15.70;99.90;;;;;;4942905;29;19927;-68
2022/10/26 08:29:30;;;;;;;;;;;15.80;99.90;;;;;;4947282;29;19927;-69
2022/10/26 08:31:57;;;;;;;;;;;15.80;99.90;;;;;;4946196;29;19934;-69
2022/10/26 08:34:24;;;;;;;;;;;15.70;99.90;;;;;;4938663;29;19934;-68
2022/10/26 08:36:51;;;;;;;;;;;15.60;99.90;;;;;;4943546;29;19927;-69
2022/10/26 08:39:17;;;;;;;;;;;15.40;99.90;;;;;;4941267;29;19931;-69
2022/10/26 08:41:45;;;;;;;;;;;15.50;99.90;;;;;;4938656;29;19927;-69
2022/10/26 08:44:20;;;;;;;;;;;15.50;99.90;;;;;;4942467;29;19930;-69
2022/10/26 08:46:50;;;;;;;;;;;15.60;99.90;;;;;;4950820;29;19931;-69
2022/10/26 08:49:19;;;;;;;;;;;15.70;99.90;;;;;;4942377;28;19931;-68
2022/10/26 08:51:47;;;;;;;;;;;15.80;99.90;;;;;;4942964;29;19937;-69
2022/10/26 08:54:17;;;;;;;;;;;15.90;99.90;;;;;;4940762;29;19927;-69
2022/10/26 08:56:45;;;;;;;;;;;16.00;99.90;;;;;;4930519;29;19931;-70
2022/10/26 08:59:17;;;;;;;;;;;16.10;99.90;;;;;;4950817;28;19934;-69
2022/10/26 09:01:46;;;;;;;;;;;16.30;99.90;;;;;;4943974;29;19927;-70
2022/10/26 09:04:13;;;;;;;;;;;16.40;99.90;;;;;;4948842;28;20294;-69
2022/10/26 09:06:49;;;;;;;;;;;16.60;99.90;;;;;;4938402;29;20287;-69
2022/10/26 09:09:17;;;;;;;;;;;16.70;99.90;;;;;;4929255;29;19975;-68
2022/10/26 09:11:52;;;;;;;;;;;16.80;99.90;;;;;;4941718;29;20048;-69
2022/10/26 09:14:20;;;;;;;;;;;17.00;99.90;;;;;;4936445;29;19930;-69
2022/10/26 09:16:57;;;;;;;;;;;17.20;99.90;;;;;;4939893;28;19934;-69
2022/10/26 09:19:28;;;;;;;;;;;17.30;99.90;;;;;;4942553;29;19942;-69
2022/10/26 09:22:00;;;;;;;;;;;17.50;99.90;;;;;;4943831;29;19957;-69
2022/10/26 09:24:31;;;;;;;;;;;17.60;99.90;;;;;;4936641;28;19934;-71
2022/10/26 09:27:03;;;;;;;;;;;17.90;99.90;;;;;;4943037;29;19926;-71
2022/10/26 09:29:34;;;;;;;;;;;18.10;99.90;;;;;;4937184;29;19933;-71
2022/10/26 09:32:03;;;;;;;;;;;18.30;99.90;;;;;;4932091;29;19933;-71
2022/10/26 09:34:32;;;;;;;;;;;18.40;99.90;;;;;;4941868;29;19926;-71
2022/10/26 09:37:00;;;;;;;;;;;18.50;99.90;;;;;;4948196;29;20390;-71
2022/10/26 09:39:33;;;;;;;;;;;18.60;99.90;;;;;;4937029;28;20366;-70
2022/10/26 09:42:04;;;;;;;;;;;18.70;99.90;;;;;;4934304;29;19931;-70
2022/10/26 09:44:34;;;;;;;;;;;18.70;99.90;;;;;;4941630;29;19999;-70
2022/10/26 09:47:04;;;;;;;;;;;18.80;99.90;;;;;;4937489;29;19934;-70
2022/10/26 09:49:35;;;;;;;;;;;18.90;99.90;;;;;;4941162;28;19942;-71
2022/10/26 09:52:02;;;;;;;;;;;18.90;99.90;;;;;;4937783;28;20302;-71
2022/10/26 09:54:29;;;;;;;;;;;19.00;99.90;;;;;;4939285;29;19926;-67
2022/10/26 09:56:58;;;;;;;;;;;19.20;99.90;;;;;;4944881;29;19926;-69
2022/10/26 09:59:25;;;;;;;;;;;19.30;99.90;;;;;;4955355;23;19937;-68
2022/10/26 10:01:52;;;;;;;;;;;19.40;99.90;;;;;;4942454;28;19970;-68
2022/10/26 10:04:21;;;;;;;;;;;19.40;99.90;;;;;;4929835;29;20358;-68
2022/10/26 10:06:48;;;;;;;;;;;19.40;99.90;;;;;;4932127;29;20409;-68
2022/10/26 10:09:16;;;;;;;;;;;19.70;99.90;;;;;;4929414;29;20372;-68
2022/10/26 10:11:44;;;;;;;;;;;19.80;99.90;;;;;;4947026;29;20009;-68
2022/10/26 10:14:14;;;;;;;;;;;19.70;99.90;;;;;;4927940;29;20021;-68
2022/10/26 10:16:42;;;;;;;;;;;19.80;99.90;;;;;;4948334;29;19984;-68
2022/10/26 10:19:20;;;;;;;;;;;20.10;99.90;;;;;;4930975;29;20029;-68
2022/10/26 10:21:49;;;;;;;;;;;23.80;99.90;;;;;;4927434;29;20410;-68
2022/10/26 10:24:22;;;;;;;;;;;27.60;99.90;;;;;;4947755;29;19926;-69
2022/10/26 10:26:55;;;;;;;;;;;30.10;99.90;;;;;;4940126;29;19970;-64
2022/10/26 10:29:24;;;;;;;;;;;31.10;99.90;;;;;;4949602;28;20270;-64
2022/10/26 10:31:55;;;;;;;;;;;31.00;99.90;;;;;;4944259;29;19931;-66
2022/10/26 10:34:22;;;;;;;;;;;29.60;99.90;;;;;;4946766;28;19934;-69
2022/10/26 10:36:51;;;;;;;;;;;29.40;99.90;;;;;;4952931;28;19937;-68
2022/10/26 10:39:28;;;;;;;;;;;29.50;99.90;;;;;;4951668;28;19927;-66
2022/10/26 10:41:55;;;;;;;;;;;29.70;99.90;;;;;;4952969;28;19935;-69
2022/10/26 10:44:24;;;;;;;;;;;29.50;99.90;;;;;;4940313;29;20478;-69
2022/10/26 10:46:51;;;;;;;;;;;30.20;99.90;;;;;;4935975;29;20400;-69
2022/10/26 10:49:20;;;;;;;;;;;30.00;99.90;;;;;;4952197;28;19941;-68
2022/10/26 10:51:47;;;;;;;;;;;29.70;99.90;;;;;;4951754;28;19927;-68
2022/10/26 10:54:22;;;;;;;;;;;29.80;99.90;;;;;;4952600;28;19933;-68
2022/10/26 10:56:51;;;;;;;;;;;29.90;99.90;;;;;;4946518;28;19931;-68
2022/10/26 10:59:42;;;;;;;;;;;30.90;99.90;;;;;;4952060;28;19954;-69
2022/10/26 11:02:24;;;;;;;;;;;31.20;99.90;;;;;;4938155;29;20301;-69
2022/10/26 11:05:07;;;;;;;;;;;31.80;99.90;;;;;;4952496;29;19934;-68
2022/10/26 11:07:41;;;;;;;;;;;30.30;99.90;;;;;;4952553;28;19927;-69
2022/10/26 11:10:14;;;;;;;;;;;30.80;99.90;;;;;;4948347;29;19975;-69
2022/10/26 11:12:44;;;;;;;;;;;30.50;99.90;;;;;;4952431;28;19926;-69
2022/10/26 11:15:14;;;;;;;;;;;32.00;99.90;;;;;;4952359;29;19934;-68
2022/10/26 11:17:47;;;;;;;;;;;31.80;99.90;;;;;;4952315;28;20346;-69
2022/10/26 11:20:16;;;;;;;;;;;30.00;99.90;;;;;;4951899;28;19974;-69
2022/10/26 11:22:46;;;;;;;;;;;29.80;99.90;;;;;;4951399;29;19963;-68
2022/10/26 11:25:17;;;;;;;;;;;30.70;99.90;;;;;;4952089;28;19927;-69
2022/10/26 11:27:47;;;;;;;;;;;30.70;99.90;;;;;;4952077;28;19926;-69
2022/10/26 11:30:15;;;;;;;;;;;31.50;99.90;;;;;;4951450;28;19927;-69
2022/10/26 11:32:44;;;;;;;;;;;31.40;99.90;;;;;;4946817;28;19931;-69
2022/10/26 11:35:14;;;;;;;;;;;31.00;99.90;;;;;;4951258;28;20351;-69
2022/10/26 11:37:44;;;;;;;;;;;32.10;99.90;;;;;;4932258;29;19927;-69
2022/10/26 11:40:16;;;;;;;;;;;31.60;99.90;;;;;;4956978;28;19927;-69
2022/10/26 11:42:46;;;;;;;;;;;32.10;99.90;;;;;;4948451;28;19931;-69
2022/10/26 11:45:17;;;;;;;;;;;31.70;99.90;;;;;;4944520;28;20347;-69
2022/10/26 11:47:46;;;;;;;;;;;31.90;99.90;;;;;;4927852;29;19926;-69
2022/10/26 11:50:15;;;;;;;;;;;31.80;99.90;;;;;;4922032;29;20012;-69
2022/10/26 11:52:45;;;;;;;;;;;29.10;99.90;;;;;;4950126;29;19935;-69
2022/10/26 11:55:11;;;;;;;;;;;27.90;99.90;;;;;;4952056;28;19939;-69
2022/10/26 11:57:40;;;;;;;;;;;28.10;99.90;;;;;;4956850;28;19927;-70
2022/10/26 12:00:09;;;;;;;;;;;27.90;99.90;;;;;;4952800;28;19933;-69
2022/10/26 12:02:38;;;;;;;;;;;28.30;99.90;;;;;;4951145;28;20398;-69
2022/10/26 12:05:08;;;;;;;;;;;28.50;99.90;;;;;;4948640;28;19934;-68
2022/10/26 12:07:36;;;;;;;;;;;29.30;99.90;;;;;;4930412;29;19927;-71
2022/10/26 12:10:06;;;;;;;;;;;29.20;99.90;;;;;;4932010;29;19954;-69
2022/10/26 12:12:36;;;;;;;;;;;29.80;99.90;;;;;;4949862;28;19927;-69
2022/10/26 12:15:07;;;;;;;;;;;28.70;99.90;;;;;;4946953;29;19928;-69
2022/10/26 12:17:37;;;;;;;;;;;29.10;99.90;;;;;;4947761;29;20429;-69
2022/10/26 12:20:08;;;;;;;;;;;28.30;99.90;;;;;;4950506;28;19927;-70
2022/10/26 12:22:38;;;;;;;;;;;27.80;99.90;;;;;;4948373;28;19961;-70
2022/10/26 12:25:06;;;;;;;;;;;27.10;99.90;;;;;;4947862;28;19987;-69
2022/10/26 12:27:49;;;;;;;;;;;27.30;99.90;;;;;;4935413;29;19931;-70
2022/10/26 12:30:24;;;;;;;;;;;27.60;99.90;;;;;;4935016;29;19933;-70
2022/10/26 12:32:53;;;;;;;;;;;27.40;99.90;;;;;;4950894;28;19934;-69
2022/10/26 12:35:43;;;;;;;;;;;27.10;99.90;;;;;;4934582;29;19927;-69
2022/10/26 12:38:29;;;;;;;;;;;27.00;99.90;;;;;;4947080;28;19927;-69
2022/10/26 12:41:08;;;;;;;;;;;28.10;99.90;;;;;;4939415;29;20290;-68
2022/10/26 12:43:39;;;;;;;;;;;28.20;99.90;;;;;;4933766;29;19930;-69
2022/10/26 12:46:24;;;;;;;;;;;28.00;99.90;;;;;;4947523;28;20359;-68
2022/10/26 12:48:53;;;;;;;;;;;27.60;99.90;;;;;;4933236;29;19933;-68
2022/10/26 12:51:34;;;;;;;;;;;27.90;99.90;;;;;;4948742;28;19947;-68
2022/10/26 12:54:07;;;;;;;;;;;26.70;99.90;;;;;;4945671;29;20342;-69
2022/10/26 12:56:36;;;;;;;;;;;25.70;99.90;;;;;;4950211;28;20402;-69
2022/10/26 12:59:09;;;;;;;;;;;25.40;99.90;;;;;;4948712;28;19926;-68
2022/10/26 13:01:40;;;;;;;;;;;25.30;99.90;;;;;;4930852;29;19977;-68
2022/10/26 13:04:14;;;;;;;;;;;25.40;99.90;;;;;;4950596;28;19934;-69
2022/10/26 13:06:48;;;;;;;;;;;26.30;99.90;;;;;;4953790;28;19931;-69
2022/10/26 13:09:16;;;;;;;;;;;27.50;99.90;;;;;;4949706;28;19927;-69
2022/10/26 13:11:46;;;;;;;;;;;28.90;99.90;;;;;;4950520;28;19930;-69
2022/10/26 13:14:18;;;;;;;;;;;29.40;99.90;;;;;;4950378;28;20034;-69
2022/10/26 13:16:46;;;;;;;;;;;29.90;99.90;;;;;;4935825;28;19927;-68
2022/10/26 13:19:24;;;;;;;;;;;29.00;99.90;;;;;;4946862;28;19954;-69
2022/10/26 13:21:51;;;;;;;;;;;29.30;99.90;;;;;;4949861;29;19978;-69
2022/10/26 13:24:19;;;;;;;;;;;29.10;99.90;;;;;;4949849;28;19990;-69
2022/10/26 13:27:03;;;;;;;;;;;28.80;99.90;;;;;;4931646;29;19998;-69
2022/10/26 13:29:30;;;;;;;;;;;28.50;99.90;;;;;;4920119;28;19954;-68
2022/10/26 13:31:58;;;;;;;;;;;27.50;99.90;;;;;;4950035;28;19926;-69
2022/10/26 13:34:28;;;;;;;;;;;27.40;99.90;;;;;;4947967;28;19927;-68
2022/10/26 13:37:01;;;;;;;;;;;27.10;99.90;;;;;;4946072;28;19942;-69
2022/10/26 13:39:30;;;;;;;;;;;27.50;99.90;;;;;;4946077;28;19927;-69
2022/10/26 13:41:58;;;;;;;;;;;27.70;99.90;;;;;;4946604;29;19966;-68
2022/10/26 13:44:26;;;;;;;;;;;26.80;99.90;;;;;;4948817;28;19978;-71
2022/10/26 13:46:55;;;;;;;;;;;26.50;99.90;;;;;;4948574;28;19946;-69
2022/10/26 13:49:24;;;;;;;;;;;27.00;99.90;;;;;;4944622;28;20017;-69
2022/10/26 13:51:53;;;;;;;;;;;27.40;99.90;;;;;;4949559;28;19927;-69
2022/10/26 13:54:23;;;;;;;;;;;27.80;99.90;;;;;;4943690;28;19935;-69
2022/10/26 13:57:01;;;;;;;;;;;27.80;99.90;;;;;;4949503;29;20378;-69
2022/10/26 13:59:28;;;;;;;;;;;26.90;99.90;;;;;;4948947;28;19931;-69
2022/10/26 14:02:14;;;;;;;;;;;26.70;99.90;;;;;;4932240;29;19993;-69
2022/10/26 14:04:41;;;;;;;;;;;26.90;99.90;;;;;;4949629;28;20279;-69
2022/10/26 14:07:16;;;;;;;;;;;27.40;99.90;;;;;;4949315;28;19934;-69
2022/10/26 14:09:42;;;;;;;;;;;27.30;99.90;;;;;;4947349;28;19927;-69
2022/10/26 14:12:10;;;;;;;;;;;27.30;99.90;;;;;;4947330;29;19927;-69
2022/10/26 14:14:38;;;;;;;;;;;27.70;99.90;;;;;;4947865;28;20452;-69
2022/10/26 14:17:05;;;;;;;;;;;27.50;99.90;;;;;;4946431;29;19934;-70
2022/10/26 14:19:34;;;;;;;;;;;27.10;99.90;;;;;;4945906;28;19927;-67
2022/10/26 14:22:01;;;;;;;;;;;26.70;99.90;;;;;;4925832;29;19931;-67
2022/10/26 14:24:30;;;;;;;;;;;26.40;99.90;;;;;;4946649;28;19927;-68
2022/10/26 14:26:57;;;;;;;;;;;26.10;99.90;;;;;;4932715;29;19930;-67
2022/10/26 14:29:25;;;;;;;;;;;26.30;99.90;;;;;;4947811;28;19931;-69
2022/10/26 14:31:53;;;;;;;;;;;25.40;99.90;;;;;;4948829;28;19931;-69
2022/10/26 14:34:20;;;;;;;;;;;25.00;99.90;;;;;;4934348;29;19970;-70
2022/10/26 14:36:48;;;;;;;;;;;25.40;99.90;;;;;;4948315;28;19935;-69
2022/10/26 14:39:18;;;;;;;;;;;24.50;99.90;;;;;;4945416;28;19986;-68
2022/10/26 14:41:46;;;;;;;;;;;24.20;99.90;;;;;;4937200;29;19931;-68
2022/10/26 14:44:15;;;;;;;;;;;23.90;99.90;;;;;;4949352;28;20506;-69
2022/10/26 14:46:43;;;;;;;;;;;23.90;99.90;;;;;;4948056;28;19930;-69
2022/10/26 14:49:16;;;;;;;;;;;24.20;99.90;;;;;;4943114;28;19966;-69
2022/10/26 14:51:43;;;;;;;;;;;24.30;99.90;;;;;;4933340;29;19926;-68
2022/10/26 14:54:19;;;;;;;;;;;24.00;99.90;;;;;;4948975;28;19927;-69
2022/10/26 14:56:47;;;;;;;;;;;23.90;99.90;;;;;;4944771;28;19979;-68
2022/10/26 14:59:20;;;;;;;;;;;23.90;99.90;;;;;;4942237;29;19974;-68
2022/10/26 15:01:49;;;;;;;;;;;23.90;99.90;;;;;;4923976;29;19938;-67
2022/10/26 15:04:25;;;;;;;;;;;24.00;99.90;;;;;;4945140;28;19931;-70
2022/10/26 15:06:52;;;;;;;;;;;24.00;99.90;;;;;;4931370;29;19935;-69
2022/10/26 15:09:37;;;;;;;;;;;23.90;99.90;;;;;;4948649;28;19927;-69
2022/10/26 15:12:06;;;;;;;;;;;24.00;99.90;;;;;;4930933;29;19935;-69
2022/10/26 15:14:33;;;;;;;;;;;23.60;99.90;;;;;;4948960;28;20350;-69
2022/10/26 15:17:00;;;;;;;;;;;23.50;99.90;;;;;;4944139;29;19927;-69
2022/10/26 15:19:27;;;;;;;;;;;23.40;99.90;;;;;;4932299;29;19927;-68
2022/10/26 15:21:54;;;;;;;;;;;22.80;99.90;;;;;;4947594;28;19954;-69
2022/10/26 15:24:27;;;;;;;;;;;22.50;99.90;;;;;;4952326;28;19951;-69
2022/10/26 15:26:54;;;;;;;;;;;22.30;99.90;;;;;;4934497;29;19931;-68
2022/10/26 15:29:39;;;;;;;;;;;22.20;99.90;;;;;;4935665;28;19927;-69
2022/10/26 15:32:16;;;;;;;;;;;22.10;99.90;;;;;;4944113;29;19931;-68
2022/10/26 15:34:46;;;;;;;;;;;21.90;99.90;;;;;;4952016;28;19931;-68
2022/10/26 15:37:13;;;;;;;;;;;21.90;99.90;;;;;;4936331;29;19931;-70
2022/10/26 15:39:40;;;;;;;;;;;21.70;99.90;;;;;;4943408;29;20013;-69
2022/10/26 15:42:09;;;;;;;;;;;21.90;99.90;;;;;;4951080;28;19931;-67
2022/10/26 15:44:35;;;;;;;;;;;21.70;99.90;;;;;;4948909;28;19927;-70
2022/10/26 15:47:04;;;;;;;;;;;21.80;99.90;;;;;;4936353;29;19933;-69
2022/10/26 15:49:30;;;;;;;;;;;21.80;99.90;;;;;;4948555;28;19927;-67
2022/10/26 15:51:58;;;;;;;;;;;21.60;99.90;;;;;;4943473;29;19967;-69
2022/10/26 15:54:25;;;;;;;;;;;21.70;99.90;;;;;;4928744;29;19927;-70
2022/10/26 15:56:52;;;;;;;;;;;21.90;99.90;;;;;;4951993;28;19952;-71
2022/10/26 15:59:19;;;;;;;;;;;21.70;99.90;;;;;;4948244;28;19927;-70
2022/10/26 16:01:46;;;;;;;;;;;21.60;99.90;;;;;;4934210;29;19935;-69
2022/10/26 16:04:14;;;;;;;;;;;21.50;99.90;;;;;;4946171;28;19934;-70
2022/10/26 16:06:41;;;;;;;;;;;21.40;99.90;;;;;;4933198;29;19927;-69
2022/10/26 16:09:10;;;;;;;;;;;21.30;99.90;;;;;;4948083;28;19934;-69
2022/10/26 16:11:37;;;;;;;;;;;20.90;99.90;;;;;;4929189;29;19927;-69
2022/10/26 16:14:04;;;;;;;;;;;20.70;99.90;;;;;;4944270;29;20437;-69
2022/10/26 16:16:31;;;;;;;;;;;20.40;99.90;;;;;;4933165;29;19928;-69
2022/10/26 16:18:58;;;;;;;;;;;20.10;99.90;;;;;;4950749;28;19926;-69
2022/10/26 16:21:26;;;;;;;;;;;19.90;99.90;;;;;;4947346;28;19931;-69
2022/10/26 16:23:54;;;;;;;;;;;19.70;99.90;;;;;;4950167;29;19930;-69
2022/10/26 16:26:21;;;;;;;;;;;19.50;99.90;;;;;;4950892;28;20366;-69
2022/10/26 16:28:48;;;;;;;;;;;19.40;99.90;;;;;;4934361;29;19943;-70
2022/10/26 16:31:16;;;;;;;;;;;19.30;99.90;;;;;;4950898;28;19930;-70
2022/10/26 16:33:43;;;;;;;;;;;19.20;99.90;;;;;;4930139;29;19934;-68
2022/10/26 16:36:10;;;;;;;;;;;19.10;99.90;;;;;;4944156;29;19935;-68
2022/10/26 16:38:38;;;;;;;;;;;19.00;99.90;;;;;;4934762;29;19931;-69
2022/10/26 16:41:06;;;;;;;;;;;18.90;99.90;;;;;;4928036;29;20414;-69
2022/10/26 16:43:33;;;;;;;;;;;18.80;99.90;;;;;;4933934;29;19935;-68
2022/10/26 16:46:01;;;;;;;;;;;18.70;99.90;;;;;;4929546;29;19934;-67
2022/10/26 16:48:28;;;;;;;;;;;18.70;99.90;;;;;;4947339;28;19926;-68
2022/10/26 16:50:54;;;;;;;;;;;18.70;99.90;;;;;;4947994;29;19947;-70
2022/10/26 16:53:21;;;;;;;;;;;18.70;99.90;;;;;;4950281;28;19927;-69
2022/10/26 16:55:49;;;;;;;;;;;18.70;99.90;;;;;;4948033;28;19934;-66
2022/10/26 16:58:16;;;;;;;;;;;18.60;99.90;;;;;;4943210;29;19927;-69
2022/10/26 17:00:43;;;;;;;;;;;18.60;99.90;;;;;;4930408;29;20346;-69
2022/10/26 17:03:10;;;;;;;;;;;18.60;99.90;;;;;;4947628;28;19926;-66
2022/10/26 17:05:36;;;;;;;;;;;18.50;99.90;;;;;;4931153;29;19931;-69
2022/10/26 17:08:03;;;;;;;;;;;18.50;99.90;;;;;;4927265;29;20343;-68
2022/10/26 17:10:30;;;;;;;;;;;18.50;99.90;;;;;;4950008;28;19927;-68
2022/10/26 17:12:58;;;;;;;;;;;18.40;99.90;;;;;;4950242;28;19982;-68
2022/10/26 17:15:27;;;;;;;;;;;18.40;99.90;;;;;;4950074;28;19934;-68
2022/10/26 17:17:53;;;;;;;;;;;18.30;99.90;;;;;;4949475;29;20346;-66
2022/10/26 17:20:20;;;;;;;;;;;18.30;99.90;;;;;;4929355;29;19934;-68
2022/10/26 17:22:47;;;;;;;;;;;18.20;99.90;;;;;;4950088;28;20406;-68
2022/10/26 17:25:14;;;;;;;;;;;18.20;99.90;;;;;;4934028;29;19934;-67
2022/10/26 17:27:41;;;;;;;;;;;18.10;99.90;;;;;;4950284;28;20338;-69
2022/10/26 17:30:09;;;;;;;;;;;18.00;99.90;;;;;;4945336;28;19931;-68